createdAt,value
2022-12-25T00:00:56.440Z,23.03
2022-12-25T00:03:25.207Z,23.57
2022-12-25T00:05:56.856Z,23.33
2022-12-25T00:08:32.353Z,24.43
2022-12-25T00:13:53.299Z,24.60
2022-12-25T00:16:31.913Z,23.37
2022-12-25T00:19:01.868Z,24.27
2022-12-25T00:21:29.423Z,24.47
2022-12-25T00:23:58.644Z,24.07
2022-12-25T00:26:27.214Z,24.77
2022-12-25T00:31:40.713Z,25.63
2022-12-25T00:34:08.115Z,24.70
2022-12-25T00:36:41.478Z,25.17
2022-12-25T00:39:10.830Z,24.13
2022-12-25T00:41:56.796Z,25.43
2022-12-25T00:44:24.192Z,24.60
2022-12-25T00:46:52.891Z,25.73
2022-12-25T00:49:22.992Z,25.57
2022-12-25T00:51:54.139Z,26.00
2022-12-25T00:54:21.545Z,24.97
2022-12-25T00:56:49.918Z,26.20
2022-12-25T00:59:17.427Z,26.00
2022-12-25T01:01:46.942Z,24.97
2022-12-25T01:04:16.285Z,25.13
2022-12-25T01:06:44.679Z,25.47
2022-12-25T01:09:33.257Z,25.70
2022-12-25T01:12:00.553Z,24.37
2022-12-25T01:14:29.094Z,24.43
2022-12-25T01:16:56.475Z,23.10
2022-12-25T01:19:25.172Z,23.90
2022-12-25T01:21:54.756Z,22.80
2022-12-25T01:24:22.041Z,21.30
2022-12-25T01:26:49.775Z,20.97
2022-12-25T01:29:17.240Z,20.87
2022-12-25T01:31:44.723Z,20.53
2022-12-25T01:34:12.061Z,20.60
2022-12-25T01:36:39.388Z,20.43
2022-12-25T01:39:06.987Z,20.40
2022-12-25T01:41:34.265Z,19.87
2022-12-25T01:44:03.873Z,20.03
2022-12-25T01:46:31.308Z,19.47
2022-12-25T01:49:06.033Z,19.47
2022-12-25T01:51:37.376Z,20.07
2022-12-25T01:54:06.512Z,19.77
2022-12-25T01:56:34.845Z,20.07
2022-12-25T01:59:03.578Z,20.00
2022-12-25T02:01:31.069Z,18.73
2022-12-25T02:04:03.283Z,18.33
2022-12-25T02:06:32.199Z,17.37
2022-12-25T02:09:05.118Z,18.13
2022-12-25T02:11:52.323Z,17.83
2022-12-25T02:14:24.220Z,17.17
2022-12-25T02:16:57.839Z,17.83
2022-12-25T02:19:35.554Z,18.03
2022-12-25T02:22:09.216Z,17.93
2022-12-25T08:06:08.441Z,23.27
2022-12-25T08:08:36.650Z,23.97
2022-12-25T08:11:04.517Z,25.43
2022-12-25T08:13:32.334Z,25.47
2022-12-25T08:16:00.721Z,26.10
2022-12-25T08:18:30.262Z,24.73
2022-12-25T08:21:02.666Z,24.37
2022-12-25T08:23:30.206Z,23.53
2022-12-25T08:26:04.926Z,24.30
2022-12-25T08:28:33.435Z,23.93
2022-12-25T08:31:00.826Z,24.63
2022-12-25T08:33:28.187Z,24.83
2022-12-25T08:35:56.404Z,23.17
2022-12-25T08:38:23.722Z,24.13
2022-12-25T08:40:51.030Z,24.00
2022-12-25T08:43:18.301Z,23.73
2022-12-25T08:45:47.445Z,24.30
2022-12-25T08:48:14.790Z,23.67
2022-12-25T08:50:46.603Z,23.77
2022-12-25T08:53:14.483Z,24.47
2022-12-25T08:55:42.254Z,24.57
2022-12-25T08:58:09.945Z,24.80
2022-12-25T09:00:37.744Z,24.20
2022-12-25T09:03:05.458Z,23.90
2022-12-25T09:05:35.718Z,24.80
2022-12-25T09:08:03.070Z,22.87
2022-12-25T09:10:30.476Z,23.03
2022-12-25T09:12:57.862Z,25.03
2022-12-25T09:15:25.208Z,23.80
2022-12-25T09:17:52.499Z,24.00
2022-12-25T09:20:19.905Z,23.10
2022-12-25T09:22:47.288Z,23.67
2022-12-25T09:25:14.612Z,23.70
2022-12-25T09:27:43.656Z,24.20
2022-12-25T09:30:11.212Z,23.17
2022-12-25T09:32:40.384Z,23.33
2022-12-25T09:35:08.808Z,23.43
2022-12-25T09:37:36.410Z,22.00
2022-12-25T09:40:04.672Z,21.17
2022-12-25T09:42:34.465Z,22.77
2022-12-25T09:45:04.007Z,21.90
2022-12-25T09:47:33.035Z,22.63
2022-12-25T09:50:03.160Z,20.30
2022-12-25T09:52:39.722Z,20.07
2022-12-25T09:55:26.568Z,19.40
2022-12-25T09:57:57.738Z,18.37
2022-12-25T10:00:26.515Z,17.77
2022-12-25T10:02:54.135Z,17.57
2022-12-25T10:05:30.454Z,18.47
2022-12-25T10:08:16.757Z,18.13
2022-12-25T10:10:56.077Z,19.77
2022-12-25T10:13:35.624Z,18.23
2022-12-25T10:16:21.764Z,20.33
2022-12-25T10:18:59.861Z,18.87
2022-12-25T10:21:28.159Z,17.73
2022-12-25T10:24:21.603Z,17.53
2022-12-25T10:26:50.606Z,17.57
2022-12-25T10:29:22.152Z,17.00
2022-12-25T10:31:50.857Z,17.80
2022-12-25T10:34:18.353Z,17.23
2022-12-25T10:36:46.457Z,17.50
2022-12-25T10:39:20.992Z,17.40
2022-12-25T10:42:04.218Z,17.23
2022-12-25T10:44:32.353Z,17.70
2022-12-25T10:47:01.935Z,16.10
2022-12-25T10:49:31.555Z,16.13
2022-12-25T10:51:59.028Z,15.87
2022-12-25T10:54:27.632Z,15.53
2022-12-25T10:56:54.838Z,17.63
2022-12-25T10:59:22.245Z,15.50
2022-12-25T11:01:53.657Z,16.87
2022-12-25T11:04:25.508Z,17.40
2022-12-25T11:07:21.986Z,17.70
2022-12-25T11:09:50.641Z,17.83
2022-12-25T11:12:20.036Z,18.53
2022-12-25T11:14:58.237Z,19.03
2022-12-25T11:17:27.177Z,20.47
2022-12-25T11:20:01.813Z,19.30
2022-12-25T11:22:29.479Z,19.47
2022-12-25T11:24:56.731Z,19.50
2022-12-25T11:27:28.155Z,19.73
2022-12-25T11:30:05.190Z,20.77
2022-12-25T11:32:42.570Z,21.50
2022-12-25T11:35:18.853Z,20.47
2022-12-25T11:37:48.550Z,21.93
2022-12-25T11:40:18.325Z,20.37
2022-12-25T11:42:50.880Z,21.33
2022-12-25T11:45:18.212Z,20.73
2022-12-25T11:48:18.005Z,20.67
2022-12-25T11:50:51.429Z,21.97
2022-12-25T11:53:38.434Z,19.87
2022-12-25T11:56:10.281Z,20.07
2022-12-25T11:58:43.152Z,21.60
2022-12-25T12:01:28.557Z,21.33
2022-12-25T12:03:56.149Z,21.20
2022-12-25T12:06:42.264Z,21.50
2022-12-25T12:09:18.376Z,21.23
2022-12-25T12:11:50.628Z,21.47
2022-12-25T12:14:25.510Z,22.33
2022-12-25T12:16:52.906Z,21.57
2022-12-25T12:19:27.452Z,21.77
2022-12-25T12:21:59.572Z,21.37
2022-12-25T12:24:30.317Z,21.40
2022-12-25T12:27:14.342Z,21.90
2022-12-25T12:29:43.883Z,21.63
2022-12-25T12:32:37.664Z,21.80
2022-12-25T12:35:10.439Z,20.60
2022-12-25T12:37:38.721Z,20.57
2022-12-25T12:40:06.857Z,20.03
2022-12-25T12:42:40.357Z,20.00
2022-12-25T12:45:09.556Z,20.80
2022-12-25T12:47:41.967Z,20.40
2022-12-25T12:50:27.259Z,20.70
2022-12-25T12:52:54.733Z,21.20
2022-12-25T12:55:32.532Z,21.40
2022-12-25T12:58:04.202Z,21.43
2022-12-25T13:00:37.597Z,20.90
2022-12-25T13:03:07.855Z,20.97
2022-12-25T13:05:41.359Z,21.03
2022-12-25T13:08:24.158Z,21.00
2022-12-25T13:10:53.424Z,22.10
2022-12-25T13:13:25.303Z,21.77
2022-12-25T13:15:52.913Z,21.70
2022-12-25T13:18:20.840Z,21.77
2022-12-25T13:20:54.790Z,21.30
2022-12-25T13:23:29.653Z,21.47
2022-12-25T13:26:11.791Z,21.90
2022-12-25T13:28:39.173Z,21.33
2022-12-25T13:31:16.250Z,23.33
2022-12-25T13:34:02.368Z,21.93
2022-12-25T13:36:31.065Z,21.83
2022-12-25T13:38:59.762Z,21.90
2022-12-25T13:41:48.426Z,21.60
2022-12-25T13:44:19.456Z,22.50
2022-12-25T13:46:47.229Z,21.50
2022-12-25T13:49:16.024Z,23.27
2022-12-25T13:51:43.419Z,22.57
2022-12-25T13:54:12.707Z,23.10
2022-12-25T13:56:46.853Z,24.53
2022-12-25T13:59:18.825Z,22.73
2022-12-25T14:01:47.162Z,22.30
2022-12-25T14:04:19.403Z,24.20
2022-12-25T14:06:46.846Z,23.53
2022-12-25T14:09:14.662Z,24.13
2022-12-25T14:11:45.708Z,23.53
2022-12-25T14:14:20.346Z,23.63
2022-12-25T14:16:49.416Z,23.50
2022-12-25T14:19:33.093Z,24.67
2022-12-25T14:22:05.706Z,24.17
2022-12-25T14:24:34.856Z,25.47
2022-12-25T14:27:07.224Z,24.10
2022-12-25T14:29:43.757Z,23.80
2022-12-25T14:32:15.960Z,28.25
2022-12-25T14:34:46.148Z,25.63
2022-12-25T14:37:17.318Z,25.70
2022-12-25T14:39:48.032Z,26.10
2022-12-25T14:42:22.900Z,25.13
2022-12-25T14:45:00.475Z,25.97
2022-12-25T14:47:32.440Z,26.70
2022-12-25T14:50:00.176Z,26.40
2022-12-25T14:52:30.398Z,24.60
2022-12-25T14:55:00.098Z,25.93
2022-12-25T14:57:29.116Z,27.13
2022-12-25T14:59:59.962Z,28.00
2022-12-25T15:02:27.777Z,26.60
2022-12-25T15:04:55.207Z,26.13
2022-12-25T15:07:26.092Z,27.63
2022-12-25T15:10:18.499Z,28.63
2022-12-25T15:12:43.113Z,27.97
2022-12-25T15:15:10.678Z,27.07
2022-12-25T15:17:38.208Z,28.67
2022-12-25T15:20:06.476Z,27.73
2022-12-25T15:22:54.277Z,27.90
2022-12-25T15:25:21.920Z,28.33
2022-12-25T15:27:49.543Z,29.27
2022-12-25T15:30:16.938Z,29.23
2022-12-25T15:32:44.387Z,28.73
2022-12-25T15:35:16.997Z,32.03
2022-12-25T15:37:44.409Z,30.17
2022-12-25T15:40:17.672Z,30.17
2022-12-25T15:42:45.510Z,31.07
2022-12-25T15:45:19.656Z,31.93
2022-12-25T15:47:47.010Z,32.43
2022-12-25T15:50:14.857Z,33.03
2022-12-25T15:52:42.312Z,33.13
2022-12-25T15:55:10.063Z,35.87
2022-12-25T15:57:38.583Z,34.87
2022-12-25T16:00:06.727Z,34.97
2022-12-25T16:02:39.210Z,35.13
2022-12-25T16:05:10.418Z,34.13
2022-12-25T16:07:38.251Z,35.37
2022-12-25T16:10:06.688Z,36.03
2022-12-25T16:12:34.020Z,35.57
2022-12-25T16:15:01.485Z,35.37
2022-12-25T16:17:28.824Z,35.93
2022-12-25T16:19:56.157Z,36.63
2022-12-25T16:22:25.666Z,36.93
2022-12-25T16:24:53.840Z,36.50
2022-12-25T16:27:21.426Z,36.00
2022-12-25T16:29:48.777Z,35.97
2022-12-25T16:32:16.894Z,35.97
2022-12-25T16:34:44.214Z,35.87
2022-12-25T16:37:11.605Z,36.37
2022-12-25T16:39:39.005Z,36.10
2022-12-25T16:42:06.350Z,35.80
2022-12-25T16:44:36.989Z,36.23
2022-12-25T16:47:04.387Z,34.57
2022-12-25T16:49:31.701Z,36.07
2022-12-25T16:51:59.011Z,34.53
2022-12-25T16:54:26.308Z,35.50
2022-12-25T16:56:53.673Z,36.33
2022-12-25T16:59:21.048Z,35.70
2022-12-25T17:01:48.512Z,34.80
2022-12-25T17:04:15.868Z,34.80
2022-12-25T17:06:43.189Z,34.73
2022-12-25T17:09:10.669Z,34.67
2022-12-25T17:11:37.963Z,34.93
2022-12-25T17:14:06.266Z,34.83
2022-12-25T17:16:35.135Z,35.73
2022-12-25T17:19:04.264Z,35.97
2022-12-25T17:21:35.434Z,34.97
2022-12-25T17:24:04.457Z,36.17
2022-12-25T17:26:32.469Z,35.00
2022-12-25T17:28:59.982Z,34.70
2022-12-25T17:31:27.359Z,36.17
2022-12-25T17:33:55.070Z,36.67
2022-12-25T17:36:22.799Z,34.87
2022-12-25T17:38:50.328Z,36.63
2022-12-25T17:41:18.485Z,37.50
2022-12-25T17:43:46.314Z,37.07
2022-12-25T17:46:15.717Z,37.60
2022-12-25T17:48:43.452Z,37.00
2022-12-25T17:51:12.660Z,37.13
2022-12-25T17:53:41.361Z,36.43
2022-12-25T17:56:09.758Z,35.67
2022-12-25T17:58:37.768Z,36.17
2022-12-25T18:01:09.030Z,37.30
2022-12-25T18:03:36.907Z,36.57
2022-12-25T18:06:04.720Z,35.80
2022-12-25T18:08:38.601Z,34.70
2022-12-25T18:11:11.133Z,36.47
2022-12-25T18:13:42.114Z,36.10
2022-12-25T18:16:10.087Z,35.33
2022-12-25T18:18:37.669Z,34.50
2022-12-25T18:21:05.141Z,34.60
2022-12-25T18:23:32.728Z,35.50
2022-12-25T18:26:04.548Z,34.50
2022-12-25T18:28:32.300Z,35.40
2022-12-25T18:30:59.783Z,34.50
2022-12-25T18:33:27.399Z,34.50
2022-12-25T18:35:58.908Z,34.33
2022-12-25T18:38:27.780Z,34.73
2022-12-25T18:40:55.939Z,36.67
2022-12-25T18:43:53.428Z,33.43
2022-12-25T18:46:10.816Z,34.27
2022-12-25T18:48:38.814Z,35.27
2022-12-25T18:51:07.953Z,34.10
2022-12-25T18:53:36.386Z,36.07
2022-12-25T18:56:15.221Z,35.23
2022-12-25T18:58:42.722Z,37.00
2022-12-25T19:01:14.520Z,34.77
2022-12-25T19:03:42.116Z,35.27
2022-12-25T19:06:09.651Z,35.93
2022-12-25T19:08:36.997Z,36.07
2022-12-25T19:11:07.046Z,34.70
2022-12-25T19:13:34.397Z,34.23
2022-12-25T19:16:01.819Z,34.63
2022-12-25T19:18:29.147Z,36.17
2022-12-25T19:20:56.511Z,34.17
2022-12-25T19:23:23.930Z,36.77
2022-12-25T19:25:51.333Z,35.80
2022-12-25T19:28:18.724Z,34.70
2022-12-25T19:30:46.116Z,35.73
2022-12-25T19:33:17.738Z,34.40
2022-12-25T19:35:46.849Z,35.33
2022-12-25T19:38:14.169Z,34.97
2022-12-25T19:41:00.252Z,34.10
2022-12-25T19:43:29.077Z,32.43
2022-12-25T19:45:56.616Z,34.40
2022-12-25T19:48:24.213Z,35.17
2022-12-25T19:50:51.624Z,33.07
2022-12-25T19:53:19.036Z,34.70
2022-12-25T19:55:46.339Z,33.53
2022-12-25T19:58:14.779Z,33.70
2022-12-25T20:00:42.249Z,33.67
2022-12-25T20:03:09.798Z,32.17
2022-12-25T20:05:37.206Z,32.63
2022-12-25T20:08:05.879Z,33.17
2022-12-25T20:10:33.249Z,32.63
2022-12-25T20:13:00.686Z,31.27
2022-12-25T20:15:28.039Z,31.27
2022-12-25T20:17:55.315Z,32.70
2022-12-25T20:20:23.402Z,31.67
2022-12-25T20:22:51.197Z,30.73
2022-12-25T20:25:18.516Z,32.60
2022-12-25T20:27:45.871Z,30.57
2022-12-25T20:30:13.647Z,32.27
2022-12-25T20:32:46.463Z,30.43
2022-12-25T20:39:02.564Z,30.67
2022-12-25T20:41:30.325Z,30.37
2022-12-25T20:43:57.906Z,30.10
2022-12-25T20:46:26.140Z,31.17
2022-12-25T20:48:54.378Z,30.77
2022-12-25T20:51:53.970Z,29.83
2022-12-25T20:54:21.439Z,31.00
2022-12-25T20:56:49.154Z,31.10
2022-12-25T20:59:16.896Z,29.47
2022-12-25T21:01:44.281Z,28.20
2022-12-25T21:04:16.382Z,28.90
2022-12-25T21:06:44.268Z,29.30
2022-12-25T21:09:11.589Z,27.30
2022-12-25T21:11:39.013Z,29.37
2022-12-25T21:14:06.379Z,28.37
2022-12-25T21:16:33.805Z,29.07
2022-12-25T21:19:01.162Z,30.90
2022-12-25T21:21:28.555Z,31.13
2022-12-25T21:23:57.070Z,31.83
2022-12-25T21:26:28.585Z,31.10
2022-12-25T21:28:57.527Z,31.00
2022-12-25T21:31:25.577Z,31.47
2022-12-25T21:33:54.477Z,30.23
2022-12-25T21:36:42.180Z,30.27
2022-12-25T21:39:09.524Z,29.53
2022-12-25T21:41:37.909Z,30.80
2022-12-25T21:44:05.723Z,30.00
2022-12-25T21:46:33.158Z,30.40
2022-12-25T21:49:01.298Z,30.10
2022-12-25T21:51:48.914Z,30.27
2022-12-25T21:54:17.002Z,30.17
2022-12-25T21:56:45.792Z,28.97
2022-12-25T21:59:17.334Z,30.20
2022-12-25T22:01:45.354Z,30.80
2022-12-25T22:04:13.683Z,32.30
2022-12-25T22:06:59.772Z,30.23
2022-12-25T22:09:27.191Z,30.97
2022-12-25T22:12:13.191Z,31.40
2022-12-25T22:14:54.165Z,30.73
2022-12-25T22:17:45.654Z,32.47
2022-12-25T22:20:17.885Z,31.67
2022-12-25T22:22:45.462Z,31.17
2022-12-25T22:25:13.557Z,31.67
2022-12-25T22:27:42.127Z,32.70
2022-12-25T22:30:14.424Z,32.40
2022-12-25T22:32:42.143Z,31.13
2022-12-25T22:35:10.404Z,33.30
2022-12-25T22:37:38.242Z,30.07
2022-12-25T22:40:06.220Z,30.70
2022-12-25T22:42:33.961Z,31.67
2022-12-25T22:45:01.281Z,31.83
2022-12-25T22:47:28.600Z,32.93
2022-12-25T22:49:55.882Z,31.57
2022-12-25T22:52:23.238Z,32.23
2022-12-25T22:54:50.629Z,31.53
2022-12-25T22:57:18.032Z,29.87
2022-12-25T22:59:46.625Z,30.30
2022-12-25T23:02:14.174Z,31.50
2022-12-25T23:04:41.597Z,29.97
2022-12-25T23:07:10.464Z,30.70
2022-12-25T23:09:37.808Z,30.47
2022-12-25T23:12:05.291Z,30.60
2022-12-25T23:14:41.823Z,30.87
2022-12-25T23:17:32.069Z,29.57
2022-12-25T23:20:18.932Z,29.47
2022-12-25T23:23:05.390Z,29.57
2022-12-25T23:25:51.843Z,28.53
2022-12-25T23:28:39.153Z,29.10
2022-12-25T23:31:06.748Z,29.97
2022-12-25T23:33:34.084Z,29.43
2022-12-25T23:36:01.446Z,31.50
2022-12-25T23:38:28.738Z,30.87
2022-12-25T23:40:56.034Z,29.77
2022-12-25T23:43:23.496Z,28.73
2022-12-25T23:45:50.864Z,28.87
2022-12-25T23:48:18.142Z,29.47
2022-12-25T23:50:45.389Z,28.73
2022-12-25T23:53:12.667Z,29.63
2022-12-25T23:55:42.225Z,29.70
2022-12-25T23:58:09.622Z,29.50
